sensor_id;sensor_type;location;lat;lon;timestamp;P1;durP1;ratioP1;P2;durP2;ratioP2
8371;SDS011;4223;48.724;8.982;2022-11-20T00:01:18;2.23;;;2.13;;
8371;SDS011;4223;48.724;8.982;2022-11-20T00:03:47;1.67;;;1.67;;
8371;SDS011;4223;48.724;8.982;2022-11-20T00:06:14;2.40;;;2.30;;
8371;SDS011;4223;48.724;8.982;2022-11-20T00:08:43;2.47;;;2.37;;
8371;SDS011;4223;48.724;8.982;2022-11-20T00:11:10;1.80;;;1.73;;
8371;SDS011;4223;48.724;8.982;2022-11-20T00:13:41;1.63;;;1.53;;
8371;SDS011;4223;48.724;8.982;2022-11-20T00:16:09;1.97;;;1.97;;
8371;SDS011;4223;48.724;8.982;2022-11-20T00:18:37;3.37;;;2.70;;
8371;SDS011;4223;48.724;8.982;2022-11-20T00:21:04;2.70;;;2.50;;
8371;SDS011;4223;48.724;8.982;2022-11-20T00:23:32;1.70;;;1.70;;
8371;SDS011;4223;48.724;8.982;2022-11-20T00:26:03;2.17;;;2.07;;
8371;SDS011;4223;48.724;8.982;2022-11-20T00:28:30;1.87;;;1.87;;
8371;SDS011;4223;48.724;8.982;2022-11-20T00:31:02;1.70;;;1.70;;
8371;SDS011;4223;48.724;8.982;2022-11-20T00:33:30;2.13;;;2.03;;
8371;SDS011;4223;48.724;8.982;2022-11-20T00:36:00;2.20;;;2.10;;
8371;SDS011;4223;48.724;8.982;2022-11-20T00:38:28;1.70;;;1.70;;
8371;SDS011;4223;48.724;8.982;2022-11-20T00:40:56;1.50;;;1.50;;
8371;SDS011;4223;48.724;8.982;2022-11-20T00:43:23;2.30;;;1.87;;
8371;SDS011;4223;48.724;8.982;2022-11-20T00:45:50;3.23;;;3.07;;
8371;SDS011;4223;48.724;8.982;2022-11-20T00:48:23;2.23;;;2.13;;
8371;SDS011;4223;48.724;8.982;2022-11-20T00:50:50;2.10;;;2.10;;
8371;SDS011;4223;48.724;8.982;2022-11-20T00:53:17;1.40;;;1.40;;
8371;SDS011;4223;48.724;8.982;2022-11-20T00:55:51;1.97;;;1.97;;
8371;SDS011;4223;48.724;8.982;2022-11-20T00:58:19;2.37;;;2.33;;
8371;SDS011;4223;48.724;8.982;2022-11-20T01:00:46;2.10;;;2.00;;
8371;SDS011;4223;48.724;8.982;2022-11-20T01:03:12;2.27;;;2.27;;
8371;SDS011;4223;48.724;8.982;2022-11-20T01:05:41;2.57;;;2.40;;
8371;SDS011;4223;48.724;8.982;2022-11-20T01:08:07;1.50;;;1.50;;
8371;SDS011;4223;48.724;8.982;2022-11-20T01:10:34;2.20;;;2.20;;
8371;SDS011;4223;48.724;8.982;2022-11-20T01:13:01;6.03;;;1.70;;
8371;SDS011;4223;48.724;8.982;2022-11-20T01:15:46;1.70;;;1.70;;
8371;SDS011;4223;48.724;8.982;2022-11-20T01:18:13;3.93;;;3.17;;
8371;SDS011;4223;48.724;8.982;2022-11-20T01:20:41;1.90;;;1.90;;
8371;SDS011;4223;48.724;8.982;2022-11-20T01:23:08;2.20;;;2.20;;
8371;SDS011;4223;48.724;8.982;2022-11-20T01:25:34;2.37;;;2.27;;
8371;SDS011;4223;48.724;8.982;2022-11-20T01:28:01;1.43;;;1.13;;
8371;SDS011;4223;48.724;8.982;2022-11-20T01:30:28;1.33;;;1.33;;
8371;SDS011;4223;48.724;8.982;2022-11-20T01:32:55;1.97;;;1.93;;
8371;SDS011;4223;48.724;8.982;2022-11-20T01:35:22;1.30;;;1.30;;
8371;SDS011;4223;48.724;8.982;2022-11-20T01:37:50;2.47;;;2.37;;
8371;SDS011;4223;48.724;8.982;2022-11-20T01:40:17;1.60;;;1.60;;
8371;SDS011;4223;48.724;8.982;2022-11-20T01:42:46;1.37;;;1.37;;
8371;SDS011;4223;48.724;8.982;2022-11-20T01:45:44;1.83;;;1.73;;
8371;SDS011;4223;48.724;8.982;2022-11-20T01:48:26;1.77;;;1.67;;
8371;SDS011;4223;48.724;8.982;2022-11-20T01:50:57;2.33;;;2.23;;
8371;SDS011;4223;48.724;8.982;2022-11-20T01:53:27;2.70;;;2.60;;
8371;SDS011;4223;48.724;8.982;2022-11-20T01:55:58;2.83;;;2.73;;
8371;SDS011;4223;48.724;8.982;2022-11-20T01:58:27;2.33;;;2.13;;
8371;SDS011;4223;48.724;8.982;2022-11-20T02:00:57;1.60;;;1.60;;
8371;SDS011;4223;48.724;8.982;2022-11-20T02:03:25;5.20;;;2.97;;
8371;SDS011;4223;48.724;8.982;2022-11-20T02:05:55;1.87;;;1.87;;
8371;SDS011;4223;48.724;8.982;2022-11-20T02:08:28;2.13;;;2.03;;
8371;SDS011;4223;48.724;8.982;2022-11-20T02:10:55;2.90;;;2.57;;
8371;SDS011;4223;48.724;8.982;2022-11-20T02:13:22;1.20;;;1.20;;
8371;SDS011;4223;48.724;8.982;2022-11-20T02:16:10;1.77;;;1.77;;
8371;SDS011;4223;48.724;8.982;2022-11-20T02:18:43;2.17;;;2.07;;
8371;SDS011;4223;48.724;8.982;2022-11-20T02:21:23;4.17;;;2.83;;
8371;SDS011;4223;48.724;8.982;2022-11-20T02:24:00;1.90;;;1.80;;
8371;SDS011;4223;48.724;8.982;2022-11-20T02:26:29;2.27;;;2.17;;
8371;SDS011;4223;48.724;8.982;2022-11-20T02:28:59;1.73;;;1.73;;
8371;SDS011;4223;48.724;8.982;2022-11-20T02:31:28;1.37;;;1.37;;
8371;SDS011;4223;48.724;8.982;2022-11-20T02:33:55;2.17;;;1.97;;
8371;SDS011;4223;48.724;8.982;2022-11-20T02:36:23;1.83;;;1.73;;
8371;SDS011;4223;48.724;8.982;2022-11-20T02:38:52;1.30;;;1.30;;
8371;SDS011;4223;48.724;8.982;2022-11-20T02:41:21;1.53;;;1.53;;
8371;SDS011;4223;48.724;8.982;2022-11-20T02:43:48;2.10;;;2.00;;
8371;SDS011;4223;48.724;8.982;2022-11-20T02:46:15;2.83;;;2.37;;
8371;SDS011;4223;48.724;8.982;2022-11-20T02:48:41;1.50;;;1.50;;
8371;SDS011;4223;48.724;8.982;2022-11-20T02:51:08;1.50;;;1.50;;
8371;SDS011;4223;48.724;8.982;2022-11-20T02:53:35;2.13;;;2.03;;
8371;SDS011;4223;48.724;8.982;2022-11-20T02:56:02;1.23;;;1.23;;
8371;SDS011;4223;48.724;8.982;2022-11-20T02:58:30;1.90;;;1.83;;
8371;SDS011;4223;48.724;8.982;2022-11-20T03:00:57;1.47;;;1.47;;
8371;SDS011;4223;48.724;8.982;2022-11-20T03:03:24;2.30;;;2.27;;
8371;SDS011;4223;48.724;8.982;2022-11-20T03:05:51;1.60;;;1.60;;
8371;SDS011;4223;48.724;8.982;2022-11-20T03:08:18;2.47;;;2.37;;
8371;SDS011;4223;48.724;8.982;2022-11-20T03:10:44;3.30;;;2.23;;
8371;SDS011;4223;48.724;8.982;2022-11-20T03:13:11;2.23;;;2.17;;
8371;SDS011;4223;48.724;8.982;2022-11-20T03:15:39;3.03;;;2.83;;
8371;SDS011;4223;48.724;8.982;2022-11-20T03:18:06;4.70;;;2.40;;
8371;SDS011;4223;48.724;8.982;2022-11-20T03:20:33;2.00;;;1.90;;
8371;SDS011;4223;48.724;8.982;2022-11-20T03:23:00;2.10;;;2.10;;
8371;SDS011;4223;48.724;8.982;2022-11-20T03:25:28;2.37;;;2.27;;
8371;SDS011;4223;48.724;8.982;2022-11-20T03:27:54;2.93;;;2.83;;
8371;SDS011;4223;48.724;8.982;2022-11-20T03:30:21;2.10;;;2.00;;
8371;SDS011;4223;48.724;8.982;2022-11-20T03:32:52;2.63;;;2.53;;
8371;SDS011;4223;48.724;8.982;2022-11-20T03:35:19;3.33;;;3.13;;
8371;SDS011;4223;48.724;8.982;2022-11-20T03:37:46;3.07;;;2.97;;
8371;SDS011;4223;48.724;8.982;2022-11-20T03:40:13;2.53;;;2.43;;
8371;SDS011;4223;48.724;8.982;2022-11-20T03:42:40;2.07;;;2.07;;
8371;SDS011;4223;48.724;8.982;2022-11-20T03:45:13;3.07;;;2.90;;
8371;SDS011;4223;48.724;8.982;2022-11-20T03:47:41;2.13;;;2.03;;
8371;SDS011;4223;48.724;8.982;2022-11-20T03:50:10;2.57;;;2.47;;
8371;SDS011;4223;48.724;8.982;2022-11-20T03:52:38;2.53;;;2.43;;
8371;SDS011;4223;48.724;8.982;2022-11-20T03:55:05;2.53;;;2.43;;
8371;SDS011;4223;48.724;8.982;2022-11-20T03:57:32;2.47;;;2.37;;
8371;SDS011;4223;48.724;8.982;2022-11-20T03:59:59;3.07;;;2.97;;
8371;SDS011;4223;48.724;8.982;2022-11-20T04:02:26;1.87;;;1.87;;
8371;SDS011;4223;48.724;8.982;2022-11-20T04:04:53;2.40;;;2.20;;
8371;SDS011;4223;48.724;8.982;2022-11-20T04:07:21;3.37;;;3.10;;
8371;SDS011;4223;48.724;8.982;2022-11-20T04:09:48;2.93;;;2.60;;
8371;SDS011;4223;48.724;8.982;2022-11-20T04:12:15;2.00;;;2.00;;
8371;SDS011;4223;48.724;8.982;2022-11-20T04:14:42;3.33;;;2.77;;
8371;SDS011;4223;48.724;8.982;2022-11-20T04:17:08;2.80;;;2.70;;
8371;SDS011;4223;48.724;8.982;2022-11-20T04:19:35;2.27;;;2.27;;
8371;SDS011;4223;48.724;8.982;2022-11-20T04:22:02;2.80;;;2.70;;
8371;SDS011;4223;48.724;8.982;2022-11-20T04:24:30;7.80;;;2.53;;
8371;SDS011;4223;48.724;8.982;2022-11-20T04:26:57;2.80;;;2.60;;
8371;SDS011;4223;48.724;8.982;2022-11-20T04:29:24;2.53;;;2.43;;
8371;SDS011;4223;48.724;8.982;2022-11-20T04:31:51;2.87;;;2.63;;
8371;SDS011;4223;48.724;8.982;2022-11-20T04:34:17;1.90;;;1.90;;
8371;SDS011;4223;48.724;8.982;2022-11-20T04:36:44;1.23;;;1.23;;
8371;SDS011;4223;48.724;8.982;2022-11-20T04:39:12;12.17;;;1.93;;
8371;SDS011;4223;48.724;8.982;2022-11-20T04:41:41;1.90;;;1.90;;
8371;SDS011;4223;48.724;8.982;2022-11-20T04:44:08;4.17;;;2.27;;
8371;SDS011;4223;48.724;8.982;2022-11-20T04:46:36;1.93;;;1.83;;
8371;SDS011;4223;48.724;8.982;2022-11-20T04:49:04;5.37;;;2.40;;
8371;SDS011;4223;48.724;8.982;2022-11-20T04:51:32;3.07;;;2.80;;
8371;SDS011;4223;48.724;8.982;2022-11-20T04:53:59;2.60;;;2.50;;
8371;SDS011;4223;48.724;8.982;2022-11-20T04:56:26;1.97;;;1.97;;
8371;SDS011;4223;48.724;8.982;2022-11-20T04:58:54;2.13;;;2.07;;
8371;SDS011;4223;48.724;8.982;2022-11-20T05:01:21;2.23;;;2.13;;
8371;SDS011;4223;48.724;8.982;2022-11-20T05:03:50;3.30;;;2.17;;
8371;SDS011;4223;48.724;8.982;2022-11-20T05:06:18;2.83;;;2.73;;
8371;SDS011;4223;48.724;8.982;2022-11-20T05:08:46;2.87;;;2.70;;
8371;SDS011;4223;48.724;8.982;2022-11-20T05:11:14;2.93;;;2.80;;
8371;SDS011;4223;48.724;8.982;2022-11-20T05:13:42;1.83;;;1.83;;
8371;SDS011;4223;48.724;8.982;2022-11-20T05:16:11;2.20;;;2.10;;
8371;SDS011;4223;48.724;8.982;2022-11-20T05:18:39;2.80;;;2.60;;
8371;SDS011;4223;48.724;8.982;2022-11-20T05:21:06;1.70;;;1.70;;
8371;SDS011;4223;48.724;8.982;2022-11-20T05:23:34;2.43;;;2.33;;
8371;SDS011;4223;48.724;8.982;2022-11-20T05:26:02;2.93;;;2.83;;
8371;SDS011;4223;48.724;8.982;2022-11-20T05:28:29;2.27;;;2.17;;
8371;SDS011;4223;48.724;8.982;2022-11-20T05:31:03;1.63;;;1.63;;
8371;SDS011;4223;48.724;8.982;2022-11-20T05:33:32;2.90;;;2.80;;
8371;SDS011;4223;48.724;8.982;2022-11-20T05:35:59;2.13;;;2.03;;
8371;SDS011;4223;48.724;8.982;2022-11-20T05:38:26;2.23;;;2.13;;
8371;SDS011;4223;48.724;8.982;2022-11-20T05:40:53;2.23;;;2.13;;
8371;SDS011;4223;48.724;8.982;2022-11-20T05:43:20;1.73;;;1.73;;
8371;SDS011;4223;48.724;8.982;2022-11-20T05:45:51;2.30;;;2.20;;
8371;SDS011;4223;48.724;8.982;2022-11-20T05:48:19;2.53;;;2.43;;
8371;SDS011;4223;48.724;8.982;2022-11-20T05:50:47;4.83;;;3.43;;
8371;SDS011;4223;48.724;8.982;2022-11-20T05:53:14;2.67;;;1.83;;
8371;SDS011;4223;48.724;8.982;2022-11-20T05:55:41;1.73;;;1.73;;
8371;SDS011;4223;48.724;8.982;2022-11-20T05:58:08;1.60;;;1.60;;
8371;SDS011;4223;48.724;8.982;2022-11-20T06:00:35;2.47;;;2.37;;
8371;SDS011;4223;48.724;8.982;2022-11-20T06:03:02;1.87;;;1.83;;
8371;SDS011;4223;48.724;8.982;2022-11-20T06:05:29;6.17;;;2.67;;
8371;SDS011;4223;48.724;8.982;2022-11-20T06:07:57;2.37;;;2.17;;
8371;SDS011;4223;48.724;8.982;2022-11-20T06:10:26;1.67;;;1.67;;
8371;SDS011;4223;48.724;8.982;2022-11-20T06:12:53;1.70;;;1.70;;
8371;SDS011;4223;48.724;8.982;2022-11-20T06:15:23;2.20;;;2.10;;
8371;SDS011;4223;48.724;8.982;2022-11-20T06:17:51;1.70;;;1.60;;
8371;SDS011;4223;48.724;8.982;2022-11-20T06:20:19;1.90;;;1.83;;
8371;SDS011;4223;48.724;8.982;2022-11-20T06:22:46;1.70;;;1.60;;
8371;SDS011;4223;48.724;8.982;2022-11-20T06:25:14;1.57;;;1.47;;
8371;SDS011;4223;48.724;8.982;2022-11-20T06:27:41;2.50;;;1.37;;
8371;SDS011;4223;48.724;8.982;2022-11-20T06:30:09;1.00;;;1.00;;
8371;SDS011;4223;48.724;8.982;2022-11-20T06:32:36;1.60;;;1.50;;
8371;SDS011;4223;48.724;8.982;2022-11-20T06:35:03;1.70;;;1.70;;
8371;SDS011;4223;48.724;8.982;2022-11-20T06:37:31;7.30;;;1.47;;
8371;SDS011;4223;48.724;8.982;2022-11-20T06:40:00;1.87;;;1.73;;
8371;SDS011;4223;48.724;8.982;2022-11-20T06:42:28;1.57;;;1.57;;
8371;SDS011;4223;48.724;8.982;2022-11-20T06:44:55;1.20;;;1.20;;
8371;SDS011;4223;48.724;8.982;2022-11-20T06:47:22;15.30;;;2.43;;
8371;SDS011;4223;48.724;8.982;2022-11-20T06:49:49;1.70;;;1.70;;
8371;SDS011;4223;48.724;8.982;2022-11-20T06:52:16;1.43;;;1.43;;
8371;SDS011;4223;48.724;8.982;2022-11-20T06:54:42;1.27;;;1.27;;
8371;SDS011;4223;48.724;8.982;2022-11-20T06:57:09;1.60;;;1.60;;
8371;SDS011;4223;48.724;8.982;2022-11-20T06:59:40;1.10;;;1.10;;
8371;SDS011;4223;48.724;8.982;2022-11-20T07:02:09;1.67;;;1.67;;
8371;SDS011;4223;48.724;8.982;2022-11-20T07:04:36;2.00;;;1.87;;
8371;SDS011;4223;48.724;8.982;2022-11-20T07:07:03;1.83;;;1.73;;
8371;SDS011;4223;48.724;8.982;2022-11-20T07:09:31;1.40;;;1.40;;
8371;SDS011;4223;48.724;8.982;2022-11-20T07:11:58;1.10;;;0.97;;
8371;SDS011;4223;48.724;8.982;2022-11-20T07:14:25;2.57;;;2.00;;
8371;SDS011;4223;48.724;8.982;2022-11-20T07:16:53;1.37;;;1.37;;
8371;SDS011;4223;48.724;8.982;2022-11-20T07:19:20;1.30;;;1.30;;
8371;SDS011;4223;48.724;8.982;2022-11-20T07:21:47;1.57;;;1.57;;
8371;SDS011;4223;48.724;8.982;2022-11-20T07:24:16;2.00;;;1.53;;
8371;SDS011;4223;48.724;8.982;2022-11-20T07:26:45;1.87;;;1.87;;
8371;SDS011;4223;48.724;8.982;2022-11-20T07:29:12;2.20;;;2.10;;
8371;SDS011;4223;48.724;8.982;2022-11-20T07:31:39;1.20;;;1.20;;
8371;SDS011;4223;48.724;8.982;2022-11-20T07:34:07;1.47;;;1.47;;
8371;SDS011;4223;48.724;8.982;2022-11-20T07:36:34;1.40;;;1.40;;
8371;SDS011;4223;48.724;8.982;2022-11-20T07:39:01;1.40;;;1.40;;
8371;SDS011;4223;48.724;8.982;2022-11-20T07:41:28;1.60;;;1.60;;
8371;SDS011;4223;48.724;8.982;2022-11-20T07:43:55;1.47;;;1.47;;
8371;SDS011;4223;48.724;8.982;2022-11-20T07:46:22;1.43;;;1.43;;
8371;SDS011;4223;48.724;8.982;2022-11-20T07:48:48;1.93;;;1.83;;
8371;SDS011;4223;48.724;8.982;2022-11-20T07:51:17;2.63;;;2.53;;
8371;SDS011;4223;48.724;8.982;2022-11-20T07:53:43;1.53;;;1.53;;
8371;SDS011;4223;48.724;8.982;2022-11-20T07:56:12;1.00;;;1.00;;
8371;SDS011;4223;48.724;8.982;2022-11-20T07:58:39;1.10;;;1.10;;
8371;SDS011;4223;48.724;8.982;2022-11-20T08:01:07;1.33;;;1.33;;
8371;SDS011;4223;48.724;8.982;2022-11-20T08:03:34;1.23;;;1.23;;
8371;SDS011;4223;48.724;8.982;2022-11-20T08:06:02;1.03;;;1.03;;
8371;SDS011;4223;48.724;8.982;2022-11-20T08:08:31;1.07;;;1.07;;
8371;SDS011;4223;48.724;8.982;2022-11-20T08:10:58;1.47;;;1.20;;
8371;SDS011;4223;48.724;8.982;2022-11-20T08:13:53;0.83;;;0.83;;
8371;SDS011;4223;48.724;8.982;2022-11-20T08:16:37;2.13;;;1.93;;
8371;SDS011;4223;48.724;8.982;2022-11-20T08:19:04;1.00;;;1.00;;
8371;SDS011;4223;48.724;8.982;2022-11-20T08:21:31;0.70;;;0.70;;
8371;SDS011;4223;48.724;8.982;2022-11-20T08:23:59;0.60;;;0.60;;
8371;SDS011;4223;48.724;8.982;2022-11-20T08:26:26;0.93;;;0.93;;
8371;SDS011;4223;48.724;8.982;2022-11-20T08:28:53;0.70;;;0.70;;
8371;SDS011;4223;48.724;8.982;2022-11-20T08:31:21;1.07;;;1.07;;
8371;SDS011;4223;48.724;8.982;2022-11-20T08:33:48;0.93;;;0.93;;
8371;SDS011;4223;48.724;8.982;2022-11-20T08:36:16;0.77;;;0.77;;
8371;SDS011;4223;48.724;8.982;2022-11-20T08:38:46;0.83;;;0.83;;
8371;SDS011;4223;48.724;8.982;2022-11-20T08:41:15;1.43;;;1.33;;
8371;SDS011;4223;48.724;8.982;2022-11-20T08:43:52;1.30;;;0.90;;
8371;SDS011;4223;48.724;8.982;2022-11-20T08:46:21;0.43;;;0.43;;
8371;SDS011;4223;48.724;8.982;2022-11-20T08:48:48;1.03;;;1.03;;
8371;SDS011;4223;48.724;8.982;2022-11-20T08:51:15;0.83;;;0.83;;
8371;SDS011;4223;48.724;8.982;2022-11-20T08:53:43;1.37;;;1.37;;
8371;SDS011;4223;48.724;8.982;2022-11-20T08:56:10;1.00;;;1.00;;
8371;SDS011;4223;48.724;8.982;2022-11-20T08:58:40;1.00;;;1.00;;
8371;SDS011;4223;48.724;8.982;2022-11-20T09:01:07;0.90;;;0.90;;
8371;SDS011;4223;48.724;8.982;2022-11-20T09:03:34;0.90;;;0.90;;
8371;SDS011;4223;48.724;8.982;2022-11-20T09:06:01;1.37;;;1.33;;
8371;SDS011;4223;48.724;8.982;2022-11-20T09:08:30;0.73;;;0.73;;
8371;SDS011;4223;48.724;8.982;2022-11-20T09:10:57;0.80;;;0.80;;
8371;SDS011;4223;48.724;8.982;2022-11-20T09:13:25;0.50;;;0.50;;
8371;SDS011;4223;48.724;8.982;2022-11-20T09:15:57;0.57;;;0.57;;
8371;SDS011;4223;48.724;8.982;2022-11-20T09:18:26;1.00;;;1.00;;
8371;SDS011;4223;48.724;8.982;2022-11-20T09:20:56;0.80;;;0.80;;
8371;SDS011;4223;48.724;8.982;2022-11-20T09:23:23;0.60;;;0.60;;
8371;SDS011;4223;48.724;8.982;2022-11-20T09:25:51;0.60;;;0.60;;
8371;SDS011;4223;48.724;8.982;2022-11-20T09:28:20;0.40;;;0.40;;
8371;SDS011;4223;48.724;8.982;2022-11-20T09:30:47;0.60;;;0.60;;
8371;SDS011;4223;48.724;8.982;2022-11-20T09:33:15;1.10;;;1.10;;
8371;SDS011;4223;48.724;8.982;2022-11-20T09:35:42;0.43;;;0.43;;
8371;SDS011;4223;48.724;8.982;2022-11-20T09:38:10;0.77;;;0.77;;
8371;SDS011;4223;48.724;8.982;2022-11-20T09:40:38;1.07;;;1.07;;
8371;SDS011;4223;48.724;8.982;2022-11-20T09:43:10;0.50;;;0.50;;
8371;SDS011;4223;48.724;8.982;2022-11-20T09:48:44;0.47;;;0.47;;
8371;SDS011;4223;48.724;8.982;2022-11-20T09:51:27;0.80;;;0.80;;
8371;SDS011;4223;48.724;8.982;2022-11-20T09:54:05;0.63;;;0.63;;
8371;SDS011;4223;48.724;8.982;2022-11-20T09:56:40;0.90;;;0.90;;
8371;SDS011;4223;48.724;8.982;2022-11-20T09:59:13;0.70;;;0.70;;
8371;SDS011;4223;48.724;8.982;2022-11-20T10:01:49;0.90;;;0.90;;
8371;SDS011;4223;48.724;8.982;2022-11-20T10:04:18;0.40;;;0.40;;
8371;SDS011;4223;48.724;8.982;2022-11-20T10:06:47;0.67;;;0.67;;
8371;SDS011;4223;48.724;8.982;2022-11-20T10:09:20;0.63;;;0.63;;
8371;SDS011;4223;48.724;8.982;2022-11-20T10:11:54;0.53;;;0.53;;
8371;SDS011;4223;48.724;8.982;2022-11-20T10:14:32;2.53;;;1.10;;
8371;SDS011;4223;48.724;8.982;2022-11-20T10:17:16;2.17;;;1.20;;
8371;SDS011;4223;48.724;8.982;2022-11-20T10:19:59;1.07;;;1.07;;
8371;SDS011;4223;48.724;8.982;2022-11-20T10:22:43;1.03;;;1.03;;
8371;SDS011;4223;48.724;8.982;2022-11-20T10:25:21;0.97;;;0.97;;
8371;SDS011;4223;48.724;8.982;2022-11-20T10:27:58;0.80;;;0.80;;
8371;SDS011;4223;48.724;8.982;2022-11-20T10:30:35;0.60;;;0.60;;
8371;SDS011;4223;48.724;8.982;2022-11-20T10:33:08;0.63;;;0.63;;
8371;SDS011;4223;48.724;8.982;2022-11-20T10:35:43;0.90;;;0.90;;
8371;SDS011;4223;48.724;8.982;2022-11-20T10:38:14;0.77;;;0.77;;
8371;SDS011;4223;48.724;8.982;2022-11-20T10:40:46;1.13;;;1.13;;
8371;SDS011;4223;48.724;8.982;2022-11-20T10:43:17;0.57;;;0.50;;
8371;SDS011;4223;48.724;8.982;2022-11-20T10:45:49;0.60;;;0.60;;
8371;SDS011;4223;48.724;8.982;2022-11-20T10:48:22;0.70;;;0.70;;
8371;SDS011;4223;48.724;8.982;2022-11-20T10:51:12;0.80;;;0.80;;
8371;SDS011;4223;48.724;8.982;2022-11-20T10:53:56;0.80;;;0.80;;
8371;SDS011;4223;48.724;8.982;2022-11-20T10:56:30;2.47;;;1.10;;
8371;SDS011;4223;48.724;8.982;2022-11-20T10:59:12;0.83;;;0.57;;
8371;SDS011;4223;48.724;8.982;2022-11-20T11:02:01;1.00;;;1.00;;
8371;SDS011;4223;48.724;8.982;2022-11-20T11:04:40;0.90;;;0.90;;
8371;SDS011;4223;48.724;8.982;2022-11-20T11:07:12;0.93;;;0.93;;
8371;SDS011;4223;48.724;8.982;2022-11-20T11:09:43;0.67;;;0.67;;
8371;SDS011;4223;48.724;8.982;2022-11-20T11:12:12;0.80;;;0.80;;
8371;SDS011;4223;48.724;8.982;2022-11-20T11:14:47;1.17;;;1.07;;
8371;SDS011;4223;48.724;8.982;2022-11-20T11:17:20;1.10;;;1.10;;
8371;SDS011;4223;48.724;8.982;2022-11-20T11:22:45;0.70;;;0.70;;
8371;SDS011;4223;48.724;8.982;2022-11-20T11:28:03;1.37;;;1.10;;
8371;SDS011;4223;48.724;8.982;2022-11-20T11:30:45;0.70;;;0.70;;
8371;SDS011;4223;48.724;8.982;2022-11-20T11:33:18;0.93;;;0.93;;
8371;SDS011;4223;48.724;8.982;2022-11-20T11:35:47;1.97;;;0.70;;
8371;SDS011;4223;48.724;8.982;2022-11-20T11:38:20;0.97;;;0.97;;
8371;SDS011;4223;48.724;8.982;2022-11-20T11:40:49;0.73;;;0.73;;
8371;SDS011;4223;48.724;8.982;2022-11-20T11:43:19;0.70;;;0.70;;
8371;SDS011;4223;48.724;8.982;2022-11-20T11:46:08;3.00;;;0.73;;
8371;SDS011;4223;48.724;8.982;2022-11-20T11:48:54;3.40;;;1.20;;
8371;SDS011;4223;48.724;8.982;2022-11-20T11:51:23;0.70;;;0.70;;
8371;SDS011;4223;48.724;8.982;2022-11-20T11:53:55;0.43;;;0.43;;
8371;SDS011;4223;48.724;8.982;2022-11-20T11:56:24;1.17;;;0.97;;
8371;SDS011;4223;48.724;8.982;2022-11-20T11:58:51;0.40;;;0.40;;
8371;SDS011;4223;48.724;8.982;2022-11-20T12:01:22;0.97;;;0.93;;
8371;SDS011;4223;48.724;8.982;2022-11-20T12:03:59;0.73;;;0.73;;
8371;SDS011;4223;48.724;8.982;2022-11-20T12:06:30;0.80;;;0.80;;
8371;SDS011;4223;48.724;8.982;2022-11-20T12:09:01;0.70;;;0.70;;
8371;SDS011;4223;48.724;8.982;2022-11-20T12:11:31;0.80;;;0.80;;
8371;SDS011;4223;48.724;8.982;2022-11-20T12:14:04;0.57;;;0.57;;
8371;SDS011;4223;48.724;8.982;2022-11-20T12:16:40;0.60;;;0.60;;
8371;SDS011;4223;48.724;8.982;2022-11-20T12:19:08;0.93;;;0.93;;
8371;SDS011;4223;48.724;8.982;2022-11-20T12:21:40;0.67;;;0.67;;
8371;SDS011;4223;48.724;8.982;2022-11-20T12:24:28;0.50;;;0.50;;
8371;SDS011;4223;48.724;8.982;2022-11-20T12:27:06;0.60;;;0.60;;
8371;SDS011;4223;48.724;8.982;2022-11-20T12:30:11;0.90;;;0.90;;
8371;SDS011;4223;48.724;8.982;2022-11-20T12:32:47;0.70;;;0.70;;
8371;SDS011;4223;48.724;8.982;2022-11-20T12:35:37;1.33;;;1.13;;
8371;SDS011;4223;48.724;8.982;2022-11-20T12:38:23;1.07;;;1.03;;
8371;SDS011;4223;48.724;8.982;2022-11-20T12:41:05;0.53;;;0.53;;
8371;SDS011;4223;48.724;8.982;2022-11-20T12:44:05;0.93;;;0.80;;
8371;SDS011;4223;48.724;8.982;2022-11-20T12:47:07;0.60;;;0.60;;
8371;SDS011;4223;48.724;8.982;2022-11-20T12:49:41;0.53;;;0.53;;
8371;SDS011;4223;48.724;8.982;2022-11-20T12:55:12;0.30;;;0.30;;
8371;SDS011;4223;48.724;8.982;2022-11-20T12:57:52;0.73;;;0.73;;
8371;SDS011;4223;48.724;8.982;2022-11-20T13:00:23;0.67;;;0.67;;
8371;SDS011;4223;48.724;8.982;2022-11-20T13:02:56;0.60;;;0.60;;
8371;SDS011;4223;48.724;8.982;2022-11-20T13:05:35;0.73;;;0.73;;
8371;SDS011;4223;48.724;8.982;2022-11-20T13:08:11;0.63;;;0.63;;
8371;SDS011;4223;48.724;8.982;2022-11-20T13:10:46;0.60;;;0.60;;
8371;SDS011;4223;48.724;8.982;2022-11-20T13:13:19;0.80;;;0.80;;
8371;SDS011;4223;48.724;8.982;2022-11-20T13:15:54;0.87;;;0.87;;
8371;SDS011;4223;48.724;8.982;2022-11-20T13:18:27;0.50;;;0.50;;
8371;SDS011;4223;48.724;8.982;2022-11-20T13:20:55;0.60;;;0.60;;
8371;SDS011;4223;48.724;8.982;2022-11-20T13:23:25;0.53;;;0.53;;
8371;SDS011;4223;48.724;8.982;2022-11-20T13:26:02;0.50;;;0.50;;
8371;SDS011;4223;48.724;8.982;2022-11-20T13:28:32;0.80;;;0.80;;
8371;SDS011;4223;48.724;8.982;2022-11-20T13:31:00;1.03;;;0.93;;
8371;SDS011;4223;48.724;8.982;2022-11-20T13:33:28;1.70;;;1.30;;
8371;SDS011;4223;48.724;8.982;2022-11-20T13:35:58;0.83;;;0.83;;
8371;SDS011;4223;48.724;8.982;2022-11-20T13:38:27;0.83;;;0.83;;
8371;SDS011;4223;48.724;8.982;2022-11-20T13:40:55;0.63;;;0.63;;
8371;SDS011;4223;48.724;8.982;2022-11-20T13:43:26;9.33;;;0.80;;
8371;SDS011;4223;48.724;8.982;2022-11-20T13:46:02;1.63;;;0.93;;
8371;SDS011;4223;48.724;8.982;2022-11-20T13:48:31;1.03;;;1.03;;
8371;SDS011;4223;48.724;8.982;2022-11-20T13:53:57;0.80;;;0.80;;
8371;SDS011;4223;48.724;8.982;2022-11-20T13:56:49;0.70;;;0.70;;
8371;SDS011;4223;48.724;8.982;2022-11-20T14:02:14;0.60;;;0.60;;
8371;SDS011;4223;48.724;8.982;2022-11-20T14:04:42;0.97;;;0.97;;
8371;SDS011;4223;48.724;8.982;2022-11-20T14:07:12;1.10;;;1.10;;
8371;SDS011;4223;48.724;8.982;2022-11-20T14:09:39;1.00;;;1.00;;
8371;SDS011;4223;48.724;8.982;2022-11-20T14:12:18;0.60;;;0.60;;
8371;SDS011;4223;48.724;8.982;2022-11-20T14:14:47;0.50;;;0.50;;
8371;SDS011;4223;48.724;8.982;2022-11-20T14:17:18;0.77;;;0.77;;
8371;SDS011;4223;48.724;8.982;2022-11-20T14:19:47;0.93;;;0.93;;
8371;SDS011;4223;48.724;8.982;2022-11-20T14:22:17;1.10;;;1.10;;
8371;SDS011;4223;48.724;8.982;2022-11-20T14:24:46;0.60;;;0.60;;
8371;SDS011;4223;48.724;8.982;2022-11-20T14:27:14;0.50;;;0.50;;
8371;SDS011;4223;48.724;8.982;2022-11-20T14:29:43;0.50;;;0.50;;
8371;SDS011;4223;48.724;8.982;2022-11-20T14:32:12;0.60;;;0.60;;
8371;SDS011;4223;48.724;8.982;2022-11-20T14:34:44;2.73;;;1.03;;
8371;SDS011;4223;48.724;8.982;2022-11-20T14:37:13;0.83;;;0.83;;
8371;SDS011;4223;48.724;8.982;2022-11-20T14:39:48;1.23;;;1.13;;
8371;SDS011;4223;48.724;8.982;2022-11-20T14:42:18;1.13;;;1.13;;
8371;SDS011;4223;48.724;8.982;2022-11-20T14:44:47;0.73;;;0.73;;
8371;SDS011;4223;48.724;8.982;2022-11-20T14:47:17;0.50;;;0.50;;
8371;SDS011;4223;48.724;8.982;2022-11-20T14:49:48;1.17;;;1.17;;
8371;SDS011;4223;48.724;8.982;2022-11-20T14:52:17;0.90;;;0.90;;
8371;SDS011;4223;48.724;8.982;2022-11-20T14:54:45;0.70;;;0.70;;
8371;SDS011;4223;48.724;8.982;2022-11-20T14:57:20;1.60;;;1.30;;
8371;SDS011;4223;48.724;8.982;2022-11-20T15:00:03;0.70;;;0.70;;
8371;SDS011;4223;48.724;8.982;2022-11-20T15:02:32;0.60;;;0.60;;
8371;SDS011;4223;48.724;8.982;2022-11-20T15:05:01;0.70;;;0.70;;
8371;SDS011;4223;48.724;8.982;2022-11-20T15:07:29;0.87;;;0.87;;
8371;SDS011;4223;48.724;8.982;2022-11-20T15:09:59;1.20;;;1.10;;
8371;SDS011;4223;48.724;8.982;2022-11-20T15:12:30;2.00;;;0.93;;
8371;SDS011;4223;48.724;8.982;2022-11-20T15:14:58;1.03;;;1.03;;
8371;SDS011;4223;48.724;8.982;2022-11-20T15:17:26;1.43;;;1.43;;
8371;SDS011;4223;48.724;8.982;2022-11-20T15:19:53;0.83;;;0.83;;
8371;SDS011;4223;48.724;8.982;2022-11-20T15:22:22;0.80;;;0.80;;
8371;SDS011;4223;48.724;8.982;2022-11-20T15:24:49;2.60;;;1.40;;
8371;SDS011;4223;48.724;8.982;2022-11-20T15:27:15;0.90;;;0.90;;
8371;SDS011;4223;48.724;8.982;2022-11-20T15:29:42;0.80;;;0.80;;
8371;SDS011;4223;48.724;8.982;2022-11-20T15:32:09;1.00;;;1.00;;
8371;SDS011;4223;48.724;8.982;2022-11-20T15:34:36;2.80;;;1.37;;
8371;SDS011;4223;48.724;8.982;2022-11-20T15:37:03;1.77;;;1.67;;
8371;SDS011;4223;48.724;8.982;2022-11-20T15:39:31;1.57;;;1.57;;
8371;SDS011;4223;48.724;8.982;2022-11-20T15:41:58;1.27;;;1.27;;
8371;SDS011;4223;48.724;8.982;2022-11-20T15:44:25;1.47;;;1.47;;
8371;SDS011;4223;48.724;8.982;2022-11-20T15:46:51;6.50;;;2.17;;
8371;SDS011;4223;48.724;8.982;2022-11-20T15:49:18;1.43;;;1.43;;
8371;SDS011;4223;48.724;8.982;2022-11-20T15:51:48;1.43;;;1.43;;